Time;durP1;ratioP1;P1;durP2;ratioP2;P2;SDS_P1;SDS_P2;PMS_P1;PMS_P2;Temp;Humidity;BMP_temperature;BMP_pressure;BME280_temperature;BME280_humidity;BME280_pressure;Samples;Min_cycle;Max_cycle;Signal;HPM_P1;HPM_P2
2023/05/25 00:01:35;;;;;;;;;;;;;;;20.69;58.33;99552.16;5092103;28;19962;-36
2023/05/25 00:04:04;;;;;;;;;;;;;;;20.74;57.74;99551.34;5092647;28;19943;-36
2023/05/25 00:06:36;;;;;;;;;;;;;;;20.74;58.23;99557.53;5092323;28;20019;-36
2023/05/25 00:09:01;;;;;;;;;;;;;;;20.60;58.60;99546.50;5092295;28;19920;-36
2023/05/25 00:11:26;;;;;;;;;;;;;;;20.59;58.49;99544.84;5092236;28;19912;-36
2023/05/25 00:13:52;;;;;;;;;;;;;;;20.70;58.45;99545.66;5092232;28;19919;-36
2023/05/25 00:16:17;;;;;;;;;;;;;;;20.60;58.57;99549.22;5091851;28;20005;-36
2023/05/25 00:18:42;;;;;;;;;;;;;;;20.51;58.45;99554.31;5091958;28;19913;-36
2023/05/25 00:21:08;;;;;;;;;;;;;;;20.31;58.94;99551.66;5092310;28;20012;-36
2023/05/25 00:23:34;;;;;;;;;;;;;;;20.38;59.42;99551.38;5092006;28;19915;-37
2023/05/25 00:25:59;;;;;;;;;;;;;;;20.33;59.58;99548.69;5091996;28;19920;-36
2023/05/25 00:28:25;;;;;;;;;;;;;;;20.48;59.52;99548.66;5091793;28;20421;-36
2023/05/25 00:30:50;;;;;;;;;;;;;;;20.66;58.72;99550.00;5090843;28;19916;-36
2023/05/25 00:33:15;;;;;;;;;;;;;;;20.56;58.97;99544.59;5091864;28;20341;-36
2023/05/25 00:35:41;;;;;;;;;;;;;;;20.56;58.71;99550.81;5091727;28;19948;-36
2023/05/25 00:38:11;;;;;;;;;;;;;;;20.43;59.40;99545.97;5091611;28;20300;-36
2023/05/25 00:40:38;;;;;;;;;;;;;;;20.42;59.13;99547.84;5092031;28;19935;-36
2023/05/25 00:43:04;;;;;;;;;;;;;;;20.33;59.73;99548.69;5091656;28;19918;-36
2023/05/25 00:45:29;;;;;;;;;;;;;;;20.41;59.74;99546.25;5091726;28;20002;-36
2023/05/25 00:47:55;;;;;;;;;;;;;;;20.30;59.92;99547.34;5091929;28;19988;-36
2023/05/25 00:50:29;;;;;;;;;;;;;;;20.23;60.05;99539.50;5091414;28;20372;-36
2023/05/25 00:52:54;;;;;;;;;;;;;;;20.29;60.35;99548.41;5091107;28;19947;-37
2023/05/25 00:55:20;;;;;;;;;;;;;;;20.36;59.58;99546.25;5091515;28;19947;-36
2023/05/25 00:57:50;;;;;;;;;;;;;;;20.37;59.72;99555.16;5091408;28;20312;-36
2023/05/25 01:00:16;;;;;;;;;;;;;;;20.15;60.41;99556.28;5091061;28;19916;-36
2023/05/25 01:02:43;;;;;;;;;;;;;;;20.04;60.35;99538.44;5091189;28;19999;-36
2023/05/25 01:05:11;;;;;;;;;;;;;;;20.13;60.53;99557.63;5091639;28;19985;-36
2023/05/25 01:07:37;;;;;;;;;;;;;;;20.17;61.05;99551.41;5104853;28;19912;-36
2023/05/25 01:10:08;;;;;;;;;;;;;;;20.06;61.33;99541.69;5111506;28;20221;-36
2023/05/25 01:12:35;;;;;;;;;;;;;;;20.09;60.97;99541.97;5111087;28;19923;-36
2023/05/25 01:15:02;;;;;;;;;;;;;;;20.05;61.57;99543.59;5111481;28;19919;-36
2023/05/25 01:17:28;;;;;;;;;;;;;;;20.11;61.11;99545.19;5111201;27;19912;-41
2023/05/25 01:19:53;;;;;;;;;;;;;;;20.10;61.04;99543.59;5111267;28;19923;-41
2023/05/25 01:22:21;;;;;;;;;;;;;;;20.12;61.09;99535.19;5104692;28;20003;-41
2023/05/25 01:25:01;;;;;;;;;;;;;;;20.08;61.05;99536.81;5090622;28;19912;-41
2023/05/25 01:27:47;;;;;;;;;;;;;;;19.83;62.49;99541.16;5090767;28;19947;-41
2023/05/25 01:30:13;;;;;;;;;;;;;;;20.04;61.59;99541.16;5090788;28;19924;-41
2023/05/25 01:32:40;;;;;;;;;;;;;;;20.05;61.59;99535.50;5090580;28;19916;-41
2023/05/25 01:35:06;;;;;;;;;;;;;;;19.89;62.29;99540.06;5090325;28;19912;-36
2023/05/25 01:37:36;;;;;;;;;;;;;;;19.84;62.42;99534.69;5090866;28;19916;-36
2023/05/25 01:40:01;;;;;;;;;;;;;;;19.26;63.43;99491.66;5090762;28;19918;-35
2023/05/25 01:42:27;;;;;;;;;;;;;;;19.53;62.90;99531.94;5090595;28;19990;-36
2023/05/25 01:44:52;;;;;;;;;;;;;;;19.68;62.92;99538.41;5090243;28;20001;-36
2023/05/25 01:47:25;;;;;;;;;;;;;;;19.54;62.88;99530.84;5090470;28;19912;-36
2023/05/25 01:49:59;;;;;;;;;;;;;;;19.63;62.41;99533.81;5090445;28;19912;-35
2023/05/25 01:52:29;;;;;;;;;;;;;;;19.53;62.74;99531.94;5090188;28;20380;-35
2023/05/25 01:55:05;;;;;;;;;;;;;;;19.57;62.76;99536.78;5090321;28;19918;-35
2023/05/25 01:57:34;;;;;;;;;;;;;;;19.48;62.96;99539.19;5090217;28;19989;-35
2023/05/25 02:00:02;;;;;;;;;;;;;;;19.58;62.91;99538.41;5090158;28;20390;-36
2023/05/25 02:02:27;;;;;;;;;;;;;;;19.58;62.56;99541.91;5090371;28;19991;-35
2023/05/25 02:04:56;;;;;;;;;;;;;;;19.43;63.15;99542.69;5090806;28;19995;-35
2023/05/25 02:07:21;;;;;;;;;;;;;;;19.11;64.53;99546.41;5090365;28;19931;-36
2023/05/25 02:09:46;;;;;;;;;;;;;;;19.07;64.54;99545.28;5090483;28;19916;-36
2023/05/25 02:12:12;;;;;;;;;;;;;;;18.88;65.14;99547.63;5090859;28;19924;-36
2023/05/25 02:14:37;;;;;;;;;;;;;;;19.14;64.17;99551.25;5090553;28;19912;-36
2023/05/25 02:17:03;;;;;;;;;;;;;;;19.28;63.38;99553.44;5090539;28;19962;-35
2023/05/25 02:19:28;;;;;;;;;;;;;;;19.31;63.19;99559.13;5091054;28;19919;-37
2023/05/25 02:21:54;;;;;;;;;;;;;;;19.39;63.10;99555.09;5090813;28;19912;-36
2023/05/25 02:24:22;;;;;;;;;;;;;;;19.41;62.60;99560.22;5091029;28;19916;-36
2023/05/25 02:26:47;;;;;;;;;;;;;;;19.38;62.50;99553.50;5090761;28;20387;-36
2023/05/25 02:29:12;;;;;;;;;;;;;;;19.40;62.79;99555.91;5090390;28;19920;-36
2023/05/25 02:31:38;;;;;;;;;;;;;;;19.25;63.09;99564.78;5090473;28;19924;-36
2023/05/25 02:34:03;;;;;;;;;;;;;;;19.27;62.76;99551.84;5090620;28;19946;-36
2023/05/25 02:36:28;;;;;;;;;;;;;;;19.36;62.67;99561.00;5090828;28;20006;-36
2023/05/25 02:38:54;;;;;;;;;;;;;;;19.26;62.49;99559.09;5090187;28;19915;-36
2023/05/25 02:41:20;;;;;;;;;;;;;;;19.34;62.39;99557.78;5090270;28;19918;-36
2023/05/25 02:43:45;;;;;;;;;;;;;;;19.29;62.64;99552.38;5090616;28;19973;-36
2023/05/25 02:46:10;;;;;;;;;;;;;;;19.28;62.31;99561.53;5090525;28;20284;-36
2023/05/25 02:48:36;;;;;;;;;;;;;;;19.28;62.79;99553.44;5090304;28;20332;-36
2023/05/25 02:51:02;;;;;;;;;;;;;;;19.43;61.90;99558.06;5090581;28;19916;-36
2023/05/25 02:53:27;;;;;;;;;;;;;;;19.46;61.92;99558.34;5091624;28;19940;-36
2023/05/25 02:55:53;;;;;;;;;;;;;;;19.30;62.47;99562.06;5093976;28;19985;-36
2023/05/25 02:58:18;;;;;;;;;;;;;;;19.33;62.38;99562.38;5094056;28;19970;-37
2023/05/25 03:00:43;;;;;;;;;;;;;;;19.32;62.38;99562.63;5094092;28;19919;-36
2023/05/25 03:03:08;;;;;;;;;;;;;;;19.28;62.64;99566.94;5093132;28;19969;-36
2023/05/25 03:05:34;;;;;;;;;;;;;;;19.34;62.51;99572.09;5093705;28;20362;-36
2023/05/25 03:08:00;;;;;;;;;;;;;;;19.34;62.55;99573.97;5109969;28;19912;-35
2023/05/25 03:10:25;;;;;;;;;;;;;;;19.17;63.17;99581.44;5113572;28;19965;-35
2023/05/25 03:12:50;;;;;;;;;;;;;;;18.92;64.06;99582.97;5113832;28;19923;-35
2023/05/25 03:15:16;;;;;;;;;;;;;;;19.01;63.63;99586.78;5113354;28;20326;-36
2023/05/25 03:17:41;;;;;;;;;;;;;;;19.12;63.23;99590.34;5113799;28;19912;-36
2023/05/25 03:20:09;;;;;;;;;;;;;;;19.18;62.65;99583.91;5113731;28;19912;-36
2023/05/25 03:22:34;;;;;;;;;;;;;;;19.37;62.19;99596.91;5114034;27;19912;-35
2023/05/25 03:24:59;;;;;;;;;;;;;;;18.90;63.12;99585.91;5113326;28;20360;-35
2023/05/25 03:27:25;;;;;;;;;;;;;;;18.96;63.46;99589.44;5113674;28;19951;-35
2023/05/25 03:29:50;;;;;;;;;;;;;;;19.14;62.50;99594.41;5113205;28;19924;-36
2023/05/25 03:32:15;;;;;;;;;;;;;;;19.12;62.57;99599.25;5113151;28;19916;-35
2023/05/25 03:34:41;;;;;;;;;;;;;;;19.29;61.89;99600.94;5113526;28;19918;-35
2023/05/25 03:37:06;;;;;;;;;;;;;;;19.48;61.71;99590.47;5113280;28;20232;-36
2023/05/25 03:39:32;;;;;;;;;;;;;;;19.71;60.89;99589.16;5113498;28;20353;-37
2023/05/25 03:41:57;;;;;;;;;;;;;;;19.87;60.47;99585.41;5112880;28;20436;-34
2023/05/25 03:44:23;;;;;;;;;;;;;;;20.00;59.83;99576.00;5113655;28;19958;-37
2023/05/25 03:46:48;;;;;;;;;;;;;;;20.08;59.15;99582.75;5113119;28;19911;-35
2023/05/25 03:49:13;;;;;;;;;;;;;;;20.19;58.70;99578.97;5113320;28;19911;-34
2023/05/25 03:51:42;;;;;;;;;;;;;;;20.49;58.39;99575.41;5112962;28;19919;-35
2023/05/25 03:54:07;;;;;;;;;;;;;;;20.67;57.09;99582.16;5110704;28;20006;-36
2023/05/25 03:56:32;;;;;;;;;;;;;;;20.95;56.71;99587.22;5092632;28;20006;-36
2023/05/25 03:58:59;;;;;;;;;;;;;;;21.26;55.99;99582.50;5092640;28;19920;-35
2023/05/25 04:01:25;;;;;;;;;;;;;;;21.47;55.37;99584.03;5093339;28;19912;-35
2023/05/25 04:03:51;;;;;;;;;;;;;;;21.39;54.40;99592.72;5090812;28;19912;-37
2023/05/25 04:06:18;;;;;;;;;;;;;;;21.36;54.27;99587.03;5093947;28;19912;-35
2023/05/25 04:08:44;;;;;;;;;;;;;;;21.12;54.59;99587.69;5112610;28;19912;-35
2023/05/25 04:11:10;;;;;;;;;;;;;;;20.87;55.34;99589.41;5112480;28;20006;-36
2023/05/25 04:13:35;;;;;;;;;;;;;;;21.03;54.80;99568.53;5112195;28;20132;-36
2023/05/25 04:16:01;;;;;;;;;;;;;;;21.43;54.16;99592.97;5112679;28;19969;-35
2023/05/25 04:18:26;;;;;;;;;;;;;;;21.73;53.18;99592.00;5112391;28;19961;-36
2023/05/25 04:20:51;;;;;;;;;;;;;;;22.03;52.49;99593.69;5098945;28;19916;-36
2023/05/25 04:23:18;;;;;;;;;;;;;;;21.53;53.29;99586.72;5091804;28;20295;-35
2023/05/25 04:25:44;;;;;;;;;;;;;;;21.23;53.66;99600.09;5091573;28;19912;-37
2023/05/25 04:28:11;;;;;;;;;;;;;;;21.64;53.13;99601.81;5091595;28;19927;-36
2023/05/25 04:30:36;;;;;;;;;;;;;;;21.56;52.88;99605.91;5091720;28;20276;-35
2023/05/25 04:33:02;;;;;;;;;;;;;;;21.62;52.81;99598.56;5092168;28;20427;-36
2023/05/25 04:35:27;;;;;;;;;;;;;;;21.46;52.77;99606.78;5092230;28;20293;-35
2023/05/25 04:37:53;;;;;;;;;;;;;;;21.38;53.40;99601.94;5092307;28;19977;-36
2023/05/25 04:40:20;;;;;;;;;;;;;;;21.82;52.73;99609.28;5092203;28;19912;-36
2023/05/25 04:42:46;;;;;;;;;;;;;;;22.52;51.31;99607.38;5092235;28;19974;-36
2023/05/25 04:45:16;;;;;;;;;;;;;;;23.02;49.99;99602.53;5092248;28;19923;-37
2023/05/25 04:47:41;;;;;;;;;;;;;;;23.60;48.63;99601.53;5092164;28;19912;-37
2023/05/25 04:50:10;;;;;;;;;;;;;;;23.96;46.98;99607.25;5092556;28;19942;-36
2023/05/25 04:52:35;;;;;;;;;;;;;;;24.29;45.95;99615.41;5091981;28;19916;-37
2023/05/25 04:55:01;;;;;;;;;;;;;;;24.66;45.57;99604.78;5092009;28;19922;-37
2023/05/25 04:57:27;;;;;;;;;;;;;;;25.08;44.74;99602.88;5091792;28;19912;-37
2023/05/25 04:59:52;;;;;;;;;;;;;;;25.45;43.64;99599.09;5091971;28;20073;-35
2023/05/25 05:02:18;;;;;;;;;;;;;;;25.55;43.14;99604.34;5095528;28;19912;-37
2023/05/25 05:04:43;;;;;;;;;;;;;;;25.96;42.54;99599.88;5089779;28;19912;-35
2023/05/25 05:07:08;;;;;;;;;;;;;;;26.17;41.42;99600.19;5101182;28;20299;-36
2023/05/25 05:09:34;;;;;;;;;;;;;;;26.11;42.54;99604.94;5102413;28;19912;-37
2023/05/25 05:12:00;;;;;;;;;;;;;;;25.88;42.30;99606.84;5088646;28;19927;-37
2023/05/25 05:14:26;;;;;;;;;;;;;;;26.07;40.91;99606.69;5091542;28;20057;-37
2023/05/25 05:16:51;;;;;;;;;;;;;;;25.80;41.25;99604.88;5091485;28;19947;-36
2023/05/25 05:19:17;;;;;;;;;;;;;;;25.91;41.69;99606.28;5088620;28;19923;-36
2023/05/25 05:21:42;;;;;;;;;;;;;;;26.21;41.29;99606.63;5087453;28;19916;-36
2023/05/25 05:24:07;;;;;;;;;;;;;;;26.45;40.85;99602.75;5091786;28;19919;-37
2023/05/25 05:26:32;;;;;;;;;;;;;;;26.18;40.44;99601.81;5091259;28;20090;-37
2023/05/25 05:28:58;;;;;;;;;;;;;;;26.33;40.48;99611.50;5091013;28;19920;-36
2023/05/25 05:31:24;;;;;;;;;;;;;;;26.49;40.42;99614.66;5088838;28;19916;-37
2023/05/25 05:33:49;;;;;;;;;;;;;;;26.66;40.24;99606.56;5090793;28;20288;-38
2023/05/25 05:36:14;;;;;;;;;;;;;;;26.61;40.41;99605.91;5090237;28;19919;-37
2023/05/25 05:38:41;;;;;;;;;;;;;;;26.77;39.75;99611.75;5090189;28;19912;-37
2023/05/25 05:41:12;;;;;;;;;;;;;;;26.24;40.02;99599.75;5090810;28;20627;-38
2023/05/25 05:43:38;;;;;;;;;;;;;;;26.55;39.99;99607.94;5091615;28;20302;-37
2023/05/25 05:46:04;;;;;;;;;;;;;;;26.90;39.35;99603.47;5091406;28;20380;-37
2023/05/25 05:48:29;;;;;;;;;;;;;;;27.21;38.63;99605.31;5091588;28;19919;-38
2023/05/25 05:50:54;;;;;;;;;;;;;;;27.63;38.22;99608.47;5091030;28;19912;-36
2023/05/25 05:53:20;;;;;;;;;;;;;;;27.79;38.26;99613.44;5090967;28;19923;-36
2023/05/25 05:55:45;;;;;;;;;;;;;;;28.27;37.74;99616.03;5089857;28;19916;-35
2023/05/25 05:58:10;;;;;;;;;;;;;;;28.78;36.88;99620.88;5089660;28;20078;-35
2023/05/25 06:00:35;;;;;;;;;;;;;;;28.77;36.20;99617.34;5089226;28;19924;-35
2023/05/25 06:03:01;;;;;;;;;;;;;;;28.51;37.05;99620.13;5090045;28;19962;-35
2023/05/25 06:05:26;;;;;;;;;;;;;;;29.03;36.26;99614.50;5090011;28;19972;-36
2023/05/25 06:07:51;;;;;;;;;;;;;;;29.09;35.73;99617.81;5090857;28;19931;-36
2023/05/25 06:10:17;;;;;;;;;;;;;;;28.66;36.33;99616.09;5090327;28;20290;-36
2023/05/25 06:12:42;;;;;;;;;;;;;;;28.94;36.30;99618.38;5090023;28;20006;-36
2023/05/25 06:15:07;;;;;;;;;;;;;;;28.54;37.67;99618.69;5090526;28;19912;-36
2023/05/25 06:17:34;;;;;;;;;;;;;;;27.41;39.38;99608.59;5090203;28;19912;-36
2023/05/25 06:19:59;;;;;;;;;;;;;;;27.80;38.43;99615.88;5081280;28;19916;-36
2023/05/25 06:22:26;;;;;;;;;;;;;;;28.24;38.10;99626.81;5089449;28;19919;-36
2023/05/25 06:24:52;;;;;;;;;;;;;;;28.33;38.43;99630.31;5087277;28;19923;-36
2023/05/25 06:27:17;;;;;;;;;;;;;;;28.00;37.95;99625.38;5084948;28;19916;-35
2023/05/25 06:29:43;;;;;;;;;;;;;;;28.55;37.23;99634.00;5092396;28;20185;-37
2023/05/25 06:32:09;;;;;;;;;;;;;;;29.00;37.88;99634.31;5093800;28;20056;-36
2023/05/25 06:34:35;;;;;;;;;;;;;;;29.23;36.31;99634.06;5092717;28;19916;-37
2023/05/25 06:37:00;;;;;;;;;;;;;;;29.68;34.84;99646.34;5091288;28;19922;-41
2023/05/25 06:39:26;;;;;;;;;;;;;;;30.27;34.18;99629.69;5094363;28;19922;-42
2023/05/25 06:41:51;;;;;;;;;;;;;;;30.68;33.28;99639.00;5094679;28;19912;-42
2023/05/25 06:44:17;;;;;;;;;;;;;;;30.86;33.21;99630.53;5093276;28;19917;-42
2023/05/25 06:46:43;;;;;;;;;;;;;;;30.63;33.03;99630.97;5085773;28;19959;-41
2023/05/25 06:49:08;;;;;;;;;;;;;;;30.04;33.65;99621.06;5091327;28;19970;-42
2023/05/25 06:51:33;;;;;;;;;;;;;;;30.77;33.15;99620.47;5093911;28;19970;-42
2023/05/25 06:53:59;;;;;;;;;;;;;;;31.00;33.34;99622.81;5094195;28;19964;-39
2023/05/25 06:56:24;;;;;;;;;;;;;;;31.22;32.23;99612.47;5093767;28;20018;-40
2023/05/25 06:58:49;;;;;;;;;;;;;;;31.73;31.91;99612.84;5092280;28;19912;-41
2023/05/25 07:01:15;;;;;;;;;;;;;;;31.73;31.85;99615.59;5092192;28;19912;-42
2023/05/25 07:03:40;;;;;;;;;;;;;;;30.25;33.45;99621.00;5093189;28;19916;-42
2023/05/25 07:06:06;;;;;;;;;;;;;;;30.83;32.08;99617.50;5094141;28;19923;-40
2023/05/25 07:08:31;;;;;;;;;;;;;;;31.68;31.41;99618.59;5113109;28;20019;-42
2023/05/25 07:10:56;;;;;;;;;;;;;;;31.98;30.47;99615.50;5112975;28;20345;-40
2023/05/25 07:13:22;;;;;;;;;;;;;;;31.24;31.50;99616.47;5113539;28;19916;-41
2023/05/25 07:15:47;;;;;;;;;;;;;;;31.93;30.43;99622.88;5113567;28;20006;-41
2023/05/25 07:18:13;;;;;;;;;;;;;;;31.97;29.54;99614.72;5114040;28;20068;-41
2023/05/25 07:20:40;;;;;;;;;;;;;;;32.52;29.30;99623.28;5114009;28;19912;-43
2023/05/25 07:23:06;;;;;;;;;;;;;;;31.58;29.78;99625.38;5114286;28;20002;-41
2023/05/25 07:25:32;;;;;;;;;;;;;;;32.10;29.17;99620.97;5114139;28;20028;-42
2023/05/25 07:27:57;;;;;;;;;;;;;;;32.91;28.88;99615.22;5113847;28;20409;-42
2023/05/25 07:30:22;;;;;;;;;;;;;;;32.37;28.76;99621.28;5113688;28;20414;-42
2023/05/25 07:32:47;;;;;;;;;;;;;;;31.57;29.53;99615.53;5113619;28;19916;-41
2023/05/25 07:35:13;;;;;;;;;;;;;;;32.30;29.43;99614.44;5105459;28;19912;-41
2023/05/25 07:37:38;;;;;;;;;;;;;;;32.47;29.23;99616.06;5092784;28;20434;-42
2023/05/25 07:40:04;;;;;;;;;;;;;;;32.93;28.92;99627.47;5093423;28;19930;-42
2023/05/25 07:42:33;;;;;;;;;;;;;;;33.34;28.42;99618.19;5092860;28;19912;-42
2023/05/25 07:44:58;;;;;;;;;;;;;;;34.04;27.48;99626.41;5092981;28;19961;-41
2023/05/25 07:47:23;;;;;;;;;;;;;;;34.63;27.18;99616.03;5092879;28;19916;-42
2023/05/25 07:49:49;;;;;;;;;;;;;;;34.04;27.30;99623.63;5092930;28;19912;-42
2023/05/25 07:52:14;;;;;;;;;;;;;;;33.27;28.86;99622.38;5092621;28;20029;-43
2023/05/25 07:54:40;;;;;;;;;;;;;;;33.97;27.82;99623.50;5092955;28;20011;-41
2023/05/25 07:57:06;;;;;;;;;;;;;;;33.71;28.04;99620.59;5091507;28;20348;-41
2023/05/25 07:59:31;;;;;;;;;;;;;;;34.38;27.21;99620.31;5092819;28;20357;-41
2023/05/25 08:01:56;;;;;;;;;;;;;;;34.77;26.12;99611.94;5092711;28;20442;-41
2023/05/25 08:04:22;;;;;;;;;;;;;;;35.00;26.06;99617.44;5092887;28;19967;-41
2023/05/25 08:06:47;;;;;;;;;;;;;;;35.26;26.38;99621.38;5099163;28;19923;-42
2023/05/25 08:09:13;;;;;;;;;;;;;;;35.22;26.14;99619.38;5113173;28;19912;-42
2023/05/25 08:11:38;;;;;;;;;;;;;;;35.41;25.79;99615.69;5112625;28;20390;-42
2023/05/25 08:14:04;;;;;;;;;;;;;;;34.77;26.47;99620.25;5113229;28;19919;-41
2023/05/25 08:16:29;;;;;;;;;;;;;;;35.02;26.06;99615.88;5099921;28;19916;-42
2023/05/25 08:18:54;;;;;;;;;;;;;;;35.60;27.29;99611.16;5083761;28;19947;-42
2023/05/25 08:21:20;;;;;;;;;;;;;;;35.75;26.24;99610.19;5087217;28;20007;-41
2023/05/25 08:23:45;;;;;;;;;;;;;;;36.18;25.38;99610.72;5092442;28;20272;-39
2023/05/25 08:26:11;;;;;;;;;;;;;;;36.25;25.73;99614.72;5091569;28;19969;-42
2023/05/25 08:28:36;;;;;;;;;;;;;;;36.10;24.95;99610.97;5092248;28;19924;-41
2023/05/25 08:31:03;;;;;;;;;;;;;;;36.02;24.88;99604.56;5092473;28;20406;-41
2023/05/25 08:33:28;;;;;;;;;;;;;;;34.89;27.23;99606.22;5090248;28;20320;-36
2023/05/25 08:35:53;;;;;;;;;;;;;;;35.35;26.38;99611.63;5092784;28;19919;-37
2023/05/25 08:38:23;;;;;;;;;;;;;;;34.80;26.60;99608.44;5092936;28;20016;-36
2023/05/25 08:40:53;;;;;;;;;;;;;;;35.07;26.51;99602.91;5091771;28;19951;-36
2023/05/25 08:43:19;;;;;;;;;;;;;;;34.83;26.58;99599.41;5092381;28;19919;-36
2023/05/25 08:45:44;;;;;;;;;;;;;;;35.12;26.89;99599.84;5092376;28;19912;-36
2023/05/25 08:48:10;;;;;;;;;;;;;;;35.13;26.77;99599.47;5091701;28;19929;-35
2023/05/25 08:50:37;;;;;;;;;;;;;;;35.68;26.43;99601.03;5090920;28;19981;-35
2023/05/25 08:53:07;;;;;;;;;;;;;;;35.27;25.60;99596.13;5091350;28;19923;-35
2023/05/25 08:55:34;;;;;;;;;;;;;;;34.90;27.09;99595.94;5091790;28;19912;-35
2023/05/25 08:58:10;;;;;;;;;;;;;;;35.35;26.32;99595.03;5090798;28;19980;-35
2023/05/25 09:00:40;;;;;;;;;;;;;;;35.42;27.26;99599.88;5090567;28;19919;-36
2023/05/25 09:03:14;;;;;;;;;;;;;;;35.82;25.69;99590.13;5089105;28;19912;-45
2023/05/25 09:05:40;;;;;;;;;;;;;;;35.92;24.54;99594.97;5089765;28;19924;-36
2023/05/25 09:08:05;;;;;;;;;;;;;;;36.18;24.63;99588.56;5089053;28;19923;-42
2023/05/25 09:10:32;;;;;;;;;;;;;;;35.96;25.74;99590.28;5091526;28;20317;-42
2023/05/25 09:12:57;;;;;;;;;;;;;;;36.43;25.48;99585.22;5091032;28;20406;-41
2023/05/25 09:15:23;;;;;;;;;;;;;;;36.76;24.61;99578.00;5091784;28;19912;-42
2023/05/25 09:17:48;;;;;;;;;;;;;;;36.94;24.15;99580.91;5092058;28;19916;-42
2023/05/25 09:20:14;;;;;;;;;;;;;;;36.05;23.87;99575.34;5091247;28;19995;-43
2023/05/25 09:22:40;;;;;;;;;;;;;;;36.44;23.83;99570.19;5089838;28;20380;-41
2023/05/25 09:25:07;;;;;;;;;;;;;;;36.54;23.93;99571.47;5090449;28;19958;-40
2023/05/25 09:27:38;;;;;;;;;;;;;;;36.68;23.82;99574.38;5091275;28;19955;-44
2023/05/25 09:30:05;;;;;;;;;;;;;;;37.00;24.23;99568.25;5091319;28;19916;-42
2023/05/25 09:32:31;;;;;;;;;;;;;;;37.72;23.58;99571.44;5089577;28;19923;-41
2023/05/25 09:35:05;;;;;;;;;;;;;;;37.77;23.06;99570.25;5090411;28;19920;-41
2023/05/25 09:37:31;;;;;;;;;;;;;;;37.13;22.44;99565.97;5091264;28;19916;-42
2023/05/25 09:39:56;;;;;;;;;;;;;;;36.05;22.47;99564.28;5091227;28;20295;-42
2023/05/25 09:42:21;;;;;;;;;;;;;;;36.45;22.21;99559.91;5091469;28;19935;-42
2023/05/25 09:44:46;;;;;;;;;;;;;;;36.49;22.95;99556.00;5090639;28;20015;-41
2023/05/25 09:47:12;;;;;;;;;;;;;;;37.05;22.11;99556.81;5091021;28;19912;-41
2023/05/25 09:49:38;;;;;;;;;;;;;;;37.67;21.83;99544.84;5091111;28;19923;-42
2023/05/25 09:52:03;;;;;;;;;;;;;;;38.23;21.52;99539.00;5091090;28;19924;-42
2023/05/25 09:54:29;;;;;;;;;;;;;;;37.90;22.29;99543.69;5090933;28;19920;-43
2023/05/25 09:56:54;;;;;;;;;;;;;;;37.86;22.22;99538.13;5090889;28;19921;-40
2023/05/25 09:59:21;;;;;;;;;;;;;;;37.87;22.33;99538.94;5090941;28;19912;-43
2023/05/25 10:01:50;;;;;;;;;;;;;;;37.59;21.21;99537.66;5090381;28;19912;-41
2023/05/25 10:04:15;;;;;;;;;;;;;;;38.44;20.68;99529.88;5090818;28;19912;-41
2023/05/25 10:06:41;;;;;;;;;;;;;;;38.60;19.93;99526.72;5096605;28;20018;-40
2023/05/25 10:09:07;;;;;;;;;;;;;;;37.32;20.59;99526.84;5111344;28;19935;-42
2023/05/25 10:11:35;;;;;;;;;;;;;;;35.89;22.24;99528.50;5111047;28;19912;-42
2023/05/25 10:14:02;;;;;;;;;;;;;;;35.98;22.50;99521.47;5095309;28;20015;-41
2023/05/25 10:16:31;;;;;;;;;;;;;;;36.53;22.21;99520.78;5086604;28;19921;-43
2023/05/25 10:18:57;;;;;;;;;;;;;;;37.45;21.34;99526.50;5090088;28;19995;-41
2023/05/25 10:21:24;;;;;;;;;;;;;;;38.23;21.62;99514.81;5090968;28;20339;-42
2023/05/25 10:23:53;;;;;;;;;;;;;;;36.32;21.81;99515.09;5091219;28;20006;-41
2023/05/25 10:26:20;;;;;;;;;;;;;;;34.40;24.08;99524.09;5090750;28;19916;-42
2023/05/25 10:28:48;;;;;;;;;;;;;;;34.24;24.42;99505.69;5088506;28;19927;-41
2023/05/25 10:31:15;;;;;;;;;;;;;;;34.39;24.36;99520.53;5090800;28;20384;-42
2023/05/25 10:33:41;;;;;;;;;;;;;;;33.19;25.59;99534.38;5090652;28;19916;-42
2023/05/25 10:36:07;;;;;;;;;;;;;;;32.69;25.86;99542.28;5090086;28;19916;-41
2023/05/25 10:38:33;;;;;;;;;;;;;;;33.44;25.49;99543.19;5090758;28;19926;-41
2023/05/25 10:40:58;;;;;;;;;;;;;;;33.66;25.16;99533.38;5090876;28;19919;-41
2023/05/25 10:43:25;;;;;;;;;;;;;;;32.01;27.16;99533.06;5090384;28;19916;-40
2023/05/25 10:45:50;;;;;;;;;;;;;;;31.52;27.66;99531.34;5072204;28;19939;-40
2023/05/25 10:48:16;;;;;;;;;;;;;;;31.89;27.00;99517.44;5084772;28;20281;-39
2023/05/25 10:50:41;;;;;;;;;;;;;;;32.61;25.41;99516.50;5089664;28;19919;-40
2023/05/25 10:53:07;;;;;;;;;;;;;;;30.87;25.65;99519.53;5090185;28;20358;-41
2023/05/25 10:55:59;;;;;;;;;;;;;;;30.44;25.99;99518.16;5090463;28;19962;-40
2023/05/25 10:58:25;;;;;;;;;;;;;;;29.82;27.86;99523.50;5090756;28;20283;-41
2023/05/25 11:01:00;;;;;;;;;;;;;;;30.29;26.78;99520.44;5090091;28;19912;-40
2023/05/25 11:03:44;;;;;;;;;;;;;;;30.23;27.46;99521.78;5090649;28;20303;-41
2023/05/25 11:06:20;;;;;;;;;;;;;;;30.36;29.04;99528.91;5092319;28;19912;-40
2023/05/25 11:08:58;;;;;;;;;;;;;;;29.82;31.25;99523.50;5111089;28;19988;-41
2023/05/25 11:11:42;;;;;;;;;;;;;;;30.05;31.72;99523.13;5110606;28;20100;-40
2023/05/25 11:14:30;;;;;;;;;;;;;;;29.84;32.01;99523.97;5111754;28;19920;-41
2023/05/25 11:17:12;;;;;;;;;;;;;;;28.87;32.76;99531.28;5114989;28;19947;-40
2023/05/25 11:19:47;;;;;;;;;;;;;;;28.61;33.56;99526.72;5074106;28;20007;-41
2023/05/25 11:22:13;;;;;;;;;;;;;;;28.56;33.87;99545.28;5073699;28;19920;-40
2023/05/25 11:24:39;;;;;;;;;;;;;;;28.04;37.02;99548.97;5073996;28;19912;-40
2023/05/25 11:27:05;;;;;;;;;;;;;;;27.34;40.58;99551.72;5073847;28;19961;-41
2023/05/25 11:29:31;;;;;;;;;;;;;;;27.10;42.49;99533.00;5090412;28;20004;-41
2023/05/25 11:31:56;;;;;;;;;;;;;;;27.61;41.57;99514.28;5093097;28;20065;-40
2023/05/25 11:34:26;;;;;;;;;;;;;;;27.61;42.14;99533.41;5094060;28;20407;-41
2023/05/25 11:36:52;;;;;;;;;;;;;;;27.97;41.79;99537.69;5093831;28;19912;-41
2023/05/25 11:39:19;;;;;;;;;;;;;;;27.96;41.77;99509.56;5093533;28;19920;-40
2023/05/25 11:41:48;;;;;;;;;;;;;;;27.36;43.32;99535.81;5091409;28;20158;-41
2023/05/25 11:44:14;;;;;;;;;;;;;;;26.98;43.51;99528.19;5090378;28;19924;-41
2023/05/25 11:46:42;;;;;;;;;;;;;;;27.49;42.62;99523.09;5092167;28;20285;-41
2023/05/25 11:49:08;;;;;;;;;;;;;;;27.78;42.12;99527.09;5090696;28;19920;-41
2023/05/25 11:51:35;;;;;;;;;;;;;;;27.53;42.79;99518.63;5092838;28;19986;-41
2023/05/25 11:54:01;;;;;;;;;;;;;;;27.95;42.29;99516.19;5092512;28;20011;-42
2023/05/25 11:56:30;;;;;;;;;;;;;;;27.87;40.99;99516.94;5093382;28;19994;-43
2023/05/25 11:58:56;;;;;;;;;;;;;;;28.18;40.58;99510.47;5093284;28;19912;-42
2023/05/25 12:01:22;;;;;;;;;;;;;;;29.01;37.66;99503.66;5092638;28;19919;-41
2023/05/25 12:03:55;;;;;;;;;;;;;;;29.40;37.82;99513.38;5092758;28;19916;-42
2023/05/25 12:06:25;;;;;;;;;;;;;;;29.97;35.54;99517.38;5096054;28;19911;-43
2023/05/25 12:08:50;;;;;;;;;;;;;;;30.39;34.67;99505.47;5112085;28;19911;-41
2023/05/25 12:11:16;;;;;;;;;;;;;;;30.52;33.93;99506.28;5112124;28;19973;-41
2023/05/25 12:13:41;;;;;;;;;;;;;;;30.20;32.82;99503.25;5112324;28;19916;-40
2023/05/25 12:16:06;;;;;;;;;;;;;;;30.37;33.07;99499.53;5112514;28;20378;-42
2023/05/25 12:18:31;;;;;;;;;;;;;;;30.56;32.80;99497.03;5112199;28;19911;-41
2023/05/25 12:20:57;;;;;;;;;;;;;;;30.98;30.95;99496.78;5112400;28;19951;-41
2023/05/25 12:23:22;;;;;;;;;;;;;;;31.56;30.88;99492.94;5112709;28;20329;-42
2023/05/25 12:25:50;;;;;;;;;;;;;;;31.94;30.64;99500.66;5111443;28;20326;-41
2023/05/25 12:28:16;;;;;;;;;;;;;;;32.42;30.54;99500.69;5105438;28;19939;-42
2023/05/25 12:30:42;;;;;;;;;;;;;;;32.70;30.39;99505.31;5092048;28;20276;-40
2023/05/25 12:33:07;;;;;;;;;;;;;;;33.13;29.87;99498.03;5092286;28;19923;-41
2023/05/25 12:35:46;;;;;;;;;;;;;;;33.35;29.90;99488.25;5092405;28;19962;-41
2023/05/25 12:38:12;;;;;;;;;;;;;;;33.14;29.53;99491.34;5088488;28;20014;-41
2023/05/25 12:40:37;;;;;;;;;;;;;;;33.62;28.78;99482.84;5086969;28;19947;-42
2023/05/25 12:43:03;;;;;;;;;;;;;;;33.11;29.77;99492.09;5091385;28;19927;-41
2023/05/25 12:45:28;;;;;;;;;;;;;;;33.15;28.80;99498.47;5091942;28;19924;-41